createdAt,value
2023-04-06T00:00:27.202Z,100795.00
2023-04-06T00:05:31.775Z,100803.34
2023-04-06T00:10:35.546Z,100803.09
2023-04-06T00:15:40.562Z,100795.56
2023-04-06T00:20:44.094Z,100793.97
2023-04-06T00:25:49.060Z,100791.31
2023-04-06T00:30:56.470Z,100797.41
2023-04-06T00:36:00.448Z,100784.50
2023-04-06T00:41:05.382Z,100783.78
2023-04-06T00:46:10.456Z,100781.44
2023-04-06T00:51:14.588Z,100779.19
2023-04-06T00:56:18.108Z,100772.25
2023-04-06T01:01:23.156Z,100775.06
2023-04-06T01:06:26.549Z,100770.88
2023-04-06T01:11:30.503Z,100765.69
2023-04-06T01:16:36.692Z,100765.13
2023-04-06T01:21:40.680Z,100769.13
2023-04-06T01:26:46.549Z,100771.63
2023-04-06T01:31:50.288Z,100756.84
2023-04-06T01:36:53.787Z,100752.97
2023-04-06T01:41:58.959Z,100747.22
2023-04-06T01:47:02.485Z,100749.06
2023-04-06T01:52:07.076Z,100742.94
2023-04-06T01:57:13.101Z,100747.22
2023-04-06T02:02:16.801Z,100738.69
2023-04-06T02:07:20.685Z,100753.25
2023-04-06T02:12:25.683Z,100743.63
2023-04-06T02:17:29.250Z,100736.75
2023-04-06T02:22:32.713Z,100735.28
2023-04-06T02:27:37.901Z,100731.34
2023-04-06T02:32:41.420Z,100732.34
2023-04-06T02:37:44.909Z,100725.56
2023-04-06T02:42:50.048Z,100724.91
2023-04-06T02:47:53.409Z,100730.28
2023-04-06T02:52:56.817Z,100738.38
2023-04-06T02:58:01.541Z,100742.72
2023-04-06T03:03:05.086Z,100746.25
2023-04-06T03:08:08.528Z,100742.78
2023-04-06T03:13:13.448Z,100742.03
2023-04-06T03:18:16.942Z,100733.69
2023-04-06T03:23:21.969Z,100737.44
2023-04-06T03:28:26.791Z,100740.28
2023-04-06T03:33:30.454Z,100745.78
2023-04-06T03:38:33.834Z,100732.38
2023-04-06T03:43:39.317Z,100737.91
2023-04-06T03:48:42.900Z,100739.28
2023-04-06T03:53:46.402Z,100741.53
2023-04-06T03:58:51.973Z,100742.59
2023-04-06T04:03:56.366Z,100755.94
2023-04-06T04:09:00.025Z,100751.16
2023-04-06T04:14:04.931Z,100757.41
2023-04-06T04:19:08.589Z,100755.88
2023-04-06T04:24:12.300Z,100768.19
2023-04-06T04:29:17.824Z,100767.59
2023-04-06T04:34:25.081Z,100766.16
2023-04-06T04:39:28.454Z,100777.50
2023-04-06T04:44:33.568Z,100778.16
2023-04-06T04:49:37.031Z,100764.94
2023-04-06T04:54:42.188Z,100764.63
2023-04-06T04:59:47.580Z,100769.66
2023-04-06T05:04:55.268Z,100776.28
2023-04-06T05:09:59.092Z,100777.63
2023-04-06T05:15:04.165Z,100773.72
2023-04-06T05:20:09.320Z,100774.88
2023-04-06T05:25:12.936Z,100770.88
2023-04-06T05:30:18.017Z,100778.78
2023-04-06T05:35:21.608Z,100777.72
2023-04-06T05:40:25.761Z,100774.22
2023-04-06T05:45:30.906Z,100785.28
2023-04-06T05:50:34.237Z,100777.50
2023-04-06T05:55:40.150Z,100780.19
2023-04-06T06:00:47.208Z,100779.06
2023-04-06T06:05:53.944Z,100791.81
2023-04-06T06:10:58.232Z,100773.94
2023-04-06T06:16:06.224Z,100778.94
2023-04-06T06:21:10.351Z,100767.97
2023-04-06T06:26:13.800Z,100765.91
2023-04-06T06:31:21.643Z,100788.94
2023-04-06T06:36:26.531Z,100792.66
2023-04-06T06:41:30.004Z,100771.81
2023-04-06T06:46:34.826Z,100775.25
2023-04-06T06:51:38.914Z,100763.88
2023-04-06T06:56:42.269Z,100776.91
2023-04-06T07:01:47.356Z,100777.50
2023-04-06T07:06:51.697Z,100767.75
2023-04-06T07:11:58.263Z,100780.59
2023-04-06T07:17:03.969Z,100777.31
2023-04-06T07:22:10.566Z,100775.06
2023-04-06T07:27:13.966Z,100773.75
2023-04-06T07:32:21.289Z,100779.91
2023-04-06T07:37:25.135Z,100784.72
2023-04-06T07:42:28.484Z,100771.16
2023-04-06T07:47:34.009Z,100780.34
2023-04-06T07:52:38.448Z,100779.31
2023-04-06T07:57:42.746Z,100775.59
2023-04-06T08:02:47.844Z,100777.44
2023-04-06T08:07:51.253Z,100773.50
2023-04-06T08:12:55.084Z,100761.78
2023-04-06T08:18:00.017Z,100773.34
2023-04-06T08:23:03.534Z,100769.66
2023-04-06T08:28:10.696Z,100763.41
2023-04-06T08:33:15.891Z,100772.38
2023-04-06T08:38:19.385Z,100766.81
2023-04-06T08:43:25.057Z,100763.09
2023-04-06T08:48:30.940Z,100760.41
2023-04-06T08:53:34.404Z,100758.16
2023-04-06T08:58:39.708Z,100766.47
2023-04-06T09:03:45.663Z,100763.81
2023-04-06T09:08:49.355Z,100757.28
2023-04-06T09:13:53.991Z,100756.13
2023-04-06T09:19:06.785Z,100751.34
2023-04-06T09:24:11.409Z,100748.31
2023-04-06T09:29:27.137Z,100745.16
2023-04-06T09:34:32.078Z,100748.13
2023-04-06T09:39:35.602Z,100743.53
2023-04-06T09:44:39.066Z,100745.78
2023-04-06T09:49:45.557Z,100744.13
2023-04-06T09:54:52.799Z,100742.91
2023-04-06T10:00:10.667Z,100751.22
2023-04-06T10:05:22.788Z,100743.75
2023-04-06T10:10:26.273Z,100735.63
2023-04-06T10:15:35.691Z,100745.63
2023-04-06T10:20:45.906Z,100736.66
2023-04-06T10:25:57.254Z,100732.66
2023-04-06T10:31:07.534Z,100729.78
2023-04-06T10:36:20.923Z,100728.44
2023-04-06T10:41:24.884Z,100720.53
2023-04-06T10:46:32.415Z,100730.75
2023-04-06T10:51:40.974Z,100720.53
2023-04-06T10:56:46.425Z,100714.25
2023-04-06T11:01:49.775Z,100706.44
2023-04-06T11:06:57.465Z,100702.19
2023-04-06T11:12:01.902Z,100711.69
2023-04-06T11:17:06.036Z,100694.97
2023-04-06T11:22:11.274Z,100685.06
2023-04-06T11:27:16.169Z,100684.78
2023-04-06T11:32:24.792Z,100682.56
2023-04-06T11:37:30.395Z,100686.84
2023-04-06T11:42:36.889Z,100676.41
2023-04-06T11:47:41.736Z,100671.28
2023-04-06T11:52:47.606Z,100674.31
2023-04-06T11:57:52.893Z,100674.34
2023-04-06T12:03:00.465Z,100658.91
2023-04-06T12:08:05.494Z,100663.03
2023-04-06T12:13:09.070Z,100654.22
2023-04-06T12:18:12.849Z,100645.66
2023-04-06T12:23:17.628Z,100645.38
2023-04-06T12:28:28.004Z,100640.53
2023-04-06T12:33:31.417Z,100631.72
2023-04-06T12:38:39.240Z,100632.16
2023-04-06T12:43:43.794Z,100633.94
2023-04-06T12:48:48.967Z,100627.72
2023-04-06T12:53:54.699Z,100617.09
2023-04-06T12:59:00.473Z,100614.88
2023-04-06T13:04:08.258Z,100609.88
2023-04-06T13:09:16.587Z,100617.63
2023-04-06T13:14:19.921Z,100616.53
2023-04-06T13:19:26.903Z,100613.63
2023-04-06T13:24:32.315Z,100606.44
2023-04-06T13:29:37.142Z,100610.88
2023-04-06T13:34:41.672Z,100594.69
2023-04-06T13:39:46.422Z,100594.56
2023-04-06T13:44:51.866Z,100592.63
2023-04-06T13:49:57.315Z,100583.50
2023-04-06T13:55:02.077Z,100588.63
2023-04-06T14:00:08.134Z,100593.72
2023-04-06T14:05:15.994Z,100583.09
2023-04-06T14:10:22.315Z,100574.66
2023-04-06T14:15:29.000Z,100580.19
2023-04-06T14:20:34.304Z,100577.44
2023-04-06T14:25:39.118Z,100575.78
2023-04-06T14:30:45.721Z,100575.31
2023-04-06T14:35:53.059Z,100574.50
2023-04-06T14:40:57.920Z,100573.25
2023-04-06T14:46:04.753Z,100568.97
2023-04-06T14:51:08.525Z,100567.59
2023-04-06T14:56:23.116Z,100552.25
2023-04-06T15:01:26.926Z,100552.78
2023-04-06T15:06:30.370Z,100551.00
2023-04-06T15:11:35.418Z,100543.00
2023-04-06T15:16:43.143Z,100550.16
2023-04-06T15:21:46.714Z,100550.66
2023-04-06T15:26:51.701Z,100548.31
2023-04-06T15:31:57.045Z,100548.03
2023-04-06T15:37:05.002Z,100540.44
2023-04-06T15:42:12.345Z,100543.06
2023-04-06T15:47:16.599Z,100544.03
2023-04-06T15:52:23.093Z,100541.94
2023-04-06T15:57:27.999Z,100547.31
2023-04-06T16:02:35.851Z,100545.09
2023-04-06T16:07:39.310Z,100546.44
2023-04-06T16:12:44.218Z,100544.94
2023-04-06T16:17:48.167Z,100540.22
2023-04-06T16:22:51.532Z,100539.78
2023-04-06T16:27:59.259Z,100540.06
2023-04-06T16:33:02.837Z,100542.09
2023-04-06T16:38:09.461Z,100548.84
2023-04-06T16:43:15.380Z,100537.91
2023-04-06T16:48:22.862Z,100551.28
2023-04-06T16:53:31.977Z,100549.31
2023-04-06T16:58:38.058Z,100550.69
2023-04-06T17:03:44.391Z,100548.47
2023-04-06T17:08:48.811Z,100558.75
2023-04-06T17:13:56.613Z,100552.75
2023-04-06T17:19:00.365Z,100552.94
2023-04-06T17:24:08.152Z,100556.47
2023-04-06T17:29:12.804Z,100560.06
2023-04-06T17:34:19.698Z,100569.38
2023-04-06T17:39:22.959Z,100568.56
2023-04-06T17:44:32.058Z,100576.50
2023-04-06T17:49:35.693Z,100581.75
2023-04-06T17:54:39.306Z,100580.84
2023-04-06T17:59:46.015Z,100590.63
2023-04-06T18:04:54.042Z,100595.03
2023-04-06T18:09:57.551Z,100590.88
2023-04-06T18:15:02.339Z,100600.50
2023-04-06T18:20:06.223Z,100596.81
2023-04-06T18:25:11.392Z,100601.13
2023-04-06T18:30:20.394Z,100600.03
2023-04-06T18:35:24.494Z,100602.63
2023-04-06T18:40:38.240Z,100604.06
2023-04-06T18:45:48.054Z,100606.50
2023-04-06T18:50:55.683Z,100612.41
2023-04-06T18:55:59.246Z,100613.91
2023-04-06T19:01:04.064Z,100617.00
2023-04-06T19:06:08.779Z,100618.59
2023-04-06T19:11:12.113Z,100620.03
2023-04-06T19:16:17.323Z,100618.91
2023-04-06T19:21:34.638Z,100624.34
2023-04-06T19:26:38.041Z,100610.94
2023-04-06T19:31:42.905Z,100616.69
2023-04-06T19:36:46.336Z,100619.88
2023-04-06T19:41:49.728Z,100617.56
2023-04-06T19:46:54.774Z,100623.25
2023-04-06T19:51:58.912Z,100610.63
2023-04-06T19:57:02.616Z,100613.91
2023-04-06T20:02:10.834Z,100612.56
2023-04-06T20:07:14.489Z,100622.59
2023-04-06T20:12:17.708Z,100611.75
2023-04-06T20:17:23.949Z,100618.13
2023-04-06T20:22:27.535Z,100615.13
2023-04-06T20:27:31.127Z,100613.69
2023-04-06T20:32:35.878Z,100618.47
2023-04-06T20:37:39.257Z,100612.97
2023-04-06T20:42:42.641Z,100607.25
2023-04-06T20:47:48.426Z,100610.16
2023-04-06T20:52:51.721Z,100621.00
2023-04-06T20:57:54.993Z,100626.66
2023-04-06T21:02:59.899Z,100613.22
2023-04-06T21:08:04.515Z,100615.34
2023-04-06T21:13:07.836Z,100614.84
2023-04-06T21:18:12.965Z,100612.75
2023-04-06T21:23:17.744Z,100610.47
2023-04-06T21:28:20.929Z,100616.19
2023-04-06T21:33:25.637Z,100613.06
2023-04-06T21:38:30.765Z,100600.44
2023-04-06T21:43:33.999Z,100609.38
2023-04-06T21:48:38.657Z,100602.94
2023-04-06T21:53:42.323Z,100602.50
2023-04-06T21:58:45.565Z,100593.63
2023-04-06T22:03:50.515Z,100599.13
2023-04-06T22:08:54.946Z,100604.72
2023-04-06T22:14:01.922Z,100589.41
2023-04-06T22:19:06.672Z,100593.44
2023-04-06T22:24:09.958Z,100589.41
2023-04-06T22:29:13.192Z,100595.00
2023-04-06T22:34:18.269Z,100597.03
2023-04-06T22:39:21.910Z,100586.22
2023-04-06T22:44:25.071Z,100594.41
2023-04-06T22:49:31.049Z,100582.75
2023-04-06T22:54:34.387Z,100593.41
2023-04-06T22:59:37.960Z,100586.00
2023-04-06T23:04:42.637Z,100582.84
2023-04-06T23:09:45.826Z,100591.88
2023-04-06T23:14:49.191Z,100585.19
2023-04-06T23:19:53.916Z,100589.03
2023-04-06T23:24:57.415Z,100586.59
2023-04-06T23:30:01.075Z,100579.94
2023-04-06T23:35:06.442Z,100588.13
2023-04-06T23:40:10.521Z,100581.53
2023-04-06T23:45:14.846Z,100578.28
2023-04-06T23:50:19.901Z,100575.97
2023-04-06T23:55:23.199Z,100584.06
